This is the latest recevied weather packets stored in our database for station/object IU1OPQ-3. If no packets are shown the sender has not sent any weather packets the latest 10 day(s).
| Time | Temp. | Humidity | Pressure | Rain* | Wind** | Luminosity | Snow |
|---|---|---|---|---|---|---|---|
| 1777581001 | 11.67° C | 73% | 1024 hPa | 0 mm | - | - | - |
| 1777580101 | 11.67° C | 73% | 1023.7 hPa | 0 mm | - | - | - |
| 1777579201 | 11.67° C | 73% | 1023.4 hPa | 0 mm | - | - | - |
| 1777578301 | 11.67° C | 74% | 1023.4 hPa | 0 mm | - | - | - |
| 1777577401 | 11.67° C | 75% | 1023.3 hPa | 0 mm | - | - | - |
| 1777576501 | 11.67° C | 75% | 1023.1 hPa | 0 mm | - | - | - |
| 1777575601 | 11.67° C | 76% | 1022.9 hPa | 0 mm | - | - | - |
| 1777574700 | 11.67° C | 76% | 1022.8 hPa | 0 mm | - | - | - |
| 1777573801 | 11.67° C | 77% | 1022.6 hPa | 0 mm | - | - | - |
| 1777572901 | 12.22° C | 76% | 1022.6 hPa | 0 mm | - | - | - |
| 1777572001 | 13.33° C | 72% | 1022.4 hPa | 0 mm | - | - | - |
| 1777571101 | 13.89° C | 70% | 1022.2 hPa | 0 mm | - | - | - |
| 1777570201 | 13.89° C | 68% | 1022.1 hPa | 0 mm | - | - | - |
| 1777569301 | 13.89° C | 67% | 1022.1 hPa | 0 mm | - | - | - |
| 1777568401 | 13.33° C | 68% | 1022.1 hPa | 0 mm | - | - | - |
| 1777567501 | 14.44° C | 62% | 1022.2 hPa | 0 mm | - | - | - |
| 1777566601 | 14.44° C | 62% | 1022.1 hPa | 0 mm | - | - | - |
| 1777565701 | 14.44° C | 62% | 1022 hPa | 0 mm | - | - | - |
| 1777564800 | 14.44° C | 60% | 1022.1 hPa | 0 mm | - | - | - |
| 1777563901 | 14.44° C | 60% | 1022.1 hPa | 0 mm | - | - | - |
| 1777563001 | 14.44° C | 61% | 1022.2 hPa | 0 mm | - | - | - |
| 1777562101 | 13.89° C | 63% | 1022.1 hPa | 0 mm | - | - | - |
| 1777561201 | 14.44° C | 63% | 1022.1 hPa | 0 mm | - | - | - |
| 1777560301 | 13.89° C | 63% | 1022.3 hPa | 0 mm | - | - | - |
| 1777559401 | 13.89° C | 63% | 1022.5 hPa | 0 mm | - | - | - |
* Rain latest hour (hover to see other rain measurements)
** Current wind speed in m/s (hover to see current wind gust speed)